sensor_id;sensor_type;location;lat;lon;timestamp;P1;durP1;ratioP1;P2;durP2;ratioP2
59830;SDS011;45711;50.108;13.712;2022-10-30T11:41:46;21.98;;;9.27;;
59830;SDS011;45711;50.108;13.712;2022-10-30T11:44:53;20.27;;;9.43;;
59830;SDS011;45711;50.108;13.712;2022-10-30T11:48:00;25.05;;;10.70;;
59830;SDS011;45711;50.108;13.712;2022-10-30T11:50:44;16.95;;;8.73;;
59830;SDS011;45711;50.108;13.712;2022-10-30T11:53:38;19.58;;;8.95;;
59830;SDS011;45711;50.108;13.712;2022-10-30T11:56:21;18.70;;;9.02;;
59830;SDS011;45711;50.108;13.712;2022-10-30T11:59:01;17.83;;;8.23;;
59830;SDS011;45711;50.108;13.712;2022-10-30T12:01:56;16.13;;;9.27;;
59830;SDS011;45711;50.108;13.712;2022-10-30T12:04:48;17.75;;;10.00;;
59830;SDS011;45711;50.108;13.712;2022-10-30T12:07:29;14.23;;;7.93;;
59830;SDS011;45711;50.108;13.712;2022-10-30T12:10:00;15.48;;;7.90;;
59830;SDS011;45711;50.108;13.712;2022-10-30T12:12:53;15.75;;;9.05;;
59830;SDS011;45711;50.108;13.712;2022-10-30T12:15:41;19.20;;;8.77;;
59830;SDS011;45711;50.108;13.712;2022-10-30T12:18:15;21.93;;;10.33;;
59830;SDS011;45711;50.108;13.712;2022-10-30T12:20:45;20.42;;;8.30;;
59830;SDS011;45711;50.108;13.712;2022-10-30T12:23:36;13.48;;;7.97;;
59830;SDS011;45711;50.108;13.712;2022-10-30T12:26:13;20.38;;;8.85;;
59830;SDS011;45711;50.108;13.712;2022-10-30T12:28:54;16.83;;;8.30;;
59830;SDS011;45711;50.108;13.712;2022-10-30T12:31:34;13.98;;;8.20;;
59830;SDS011;45711;50.108;13.712;2022-10-30T12:34:16;14.43;;;7.97;;
59830;SDS011;45711;50.108;13.712;2022-10-30T12:36:55;25.27;;;8.27;;
59830;SDS011;45711;50.108;13.712;2022-10-30T12:39:48;15.45;;;8.00;;
59830;SDS011;45711;50.108;13.712;2022-10-30T12:42:47;14.35;;;7.60;;
59830;SDS011;45711;50.108;13.712;2022-10-30T12:45:27;23.95;;;9.30;;
59830;SDS011;45711;50.108;13.712;2022-10-30T12:48:13;23.70;;;8.15;;
59830;SDS011;45711;50.108;13.712;2022-10-30T12:51:45;15.90;;;7.30;;
59830;SDS011;45711;50.108;13.712;2022-10-30T12:54:28;16.52;;;8.18;;
59830;SDS011;45711;50.108;13.712;2022-10-30T12:57:24;22.25;;;7.90;;
59830;SDS011;45711;50.108;13.712;2022-10-30T13:00:00;14.60;;;7.25;;
59830;SDS011;45711;50.108;13.712;2022-10-30T13:02:43;12.55;;;6.80;;
59830;SDS011;45711;50.108;13.712;2022-10-30T13:11:47;16.45;;;6.03;;
59830;SDS011;45711;50.108;13.712;2022-10-30T13:15:00;21.13;;;6.18;;
59830;SDS011;45711;50.108;13.712;2022-10-30T13:17:38;19.67;;;6.90;;
59830;SDS011;45711;50.108;13.712;2022-10-30T13:20:16;15.25;;;6.55;;
59830;SDS011;45711;50.108;13.712;2022-10-30T13:26:17;13.40;;;6.07;;
59830;SDS011;45711;50.108;13.712;2022-10-30T13:28:58;14.02;;;6.05;;
59830;SDS011;45711;50.108;13.712;2022-10-30T13:31:33;22.80;;;5.47;;
59830;SDS011;45711;50.108;13.712;2022-10-30T13:35:24;17.65;;;6.32;;
59830;SDS011;45711;50.108;13.712;2022-10-30T13:37:29;11.20;;;5.60;;
59830;SDS011;45711;50.108;13.712;2022-10-30T13:40:24;13.60;;;5.78;;
59830;SDS011;45711;50.108;13.712;2022-10-30T13:43:21;16.70;;;5.07;;
59830;SDS011;45711;50.108;13.712;2022-10-30T13:46:08;15.20;;;4.65;;
59830;SDS011;45711;50.108;13.712;2022-10-30T13:49:03;22.73;;;5.25;;
59830;SDS011;45711;50.108;13.712;2022-10-30T13:52:13;10.68;;;5.25;;
59830;SDS011;45711;50.108;13.712;2022-10-30T13:58:01;16.35;;;4.40;;
59830;SDS011;45711;50.108;13.712;2022-10-30T14:00:49;13.85;;;4.40;;
59830;SDS011;45711;50.108;13.712;2022-10-30T14:03:37;19.08;;;4.13;;
59830;SDS011;45711;50.108;13.712;2022-10-30T14:06:37;14.48;;;5.88;;
59830;SDS011;45711;50.108;13.712;2022-10-30T14:13:12;25.37;;;4.83;;
59830;SDS011;45711;50.108;13.712;2022-10-30T15:00:53;7.75;;;4.53;;
59830;SDS011;45711;50.108;13.712;2022-10-30T15:21:50;13.55;;;4.55;;
59830;SDS011;45711;50.108;13.712;2022-10-30T15:25:17;9.23;;;4.25;;
59830;SDS011;45711;50.108;13.712;2022-10-30T15:31:55;11.07;;;4.38;;
59830;SDS011;45711;50.108;13.712;2022-10-30T15:34:33;8.32;;;3.95;;
59830;SDS011;45711;50.108;13.712;2022-10-30T15:50:23;7.00;;;3.60;;
59830;SDS011;45711;50.108;13.712;2022-10-30T15:52:49;21.73;;;5.18;;
59830;SDS011;45711;50.108;13.712;2022-10-30T15:55:17;16.95;;;4.90;;
59830;SDS011;45711;50.108;13.712;2022-10-30T15:57:48;29.20;;;5.22;;
59830;SDS011;45711;50.108;13.712;2022-10-30T16:05:54;26.30;;;5.70;;
59830;SDS011;45711;50.108;13.712;2022-10-30T16:57:08;25.02;;;7.32;;
59830;SDS011;45711;50.108;13.712;2022-10-30T16:59:53;22.27;;;7.50;;
59830;SDS011;45711;50.108;13.712;2022-10-30T17:26:13;24.13;;;8.68;;
59830;SDS011;45711;50.108;13.712;2022-10-30T18:48:27;38.10;;;18.65;;
59830;SDS011;45711;50.108;13.712;2022-10-30T18:51:43;37.55;;;17.27;;
59830;SDS011;45711;50.108;13.712;2022-10-30T18:57:41;40.17;;;18.70;;
59830;SDS011;45711;50.108;13.712;2022-10-30T21:28:26;40.28;;;19.23;;
59830;SDS011;45711;50.108;13.712;2022-10-30T21:31:04;49.50;;;22.15;;
59830;SDS011;45711;50.108;13.712;2022-10-30T21:34:41;36.60;;;19.95;;
59830;SDS011;45711;50.108;13.712;2022-10-30T21:36:53;41.58;;;20.10;;
59830;SDS011;45711;50.108;13.712;2022-10-30T21:39:26;45.88;;;22.30;;
59830;SDS011;45711;50.108;13.712;2022-10-30T21:42:39;48.30;;;23.92;;
59830;SDS011;45711;50.108;13.712;2022-10-30T21:48:19;44.35;;;20.55;;
59830;SDS011;45711;50.108;13.712;2022-10-30T21:54:29;47.67;;;23.27;;
59830;SDS011;45711;50.108;13.712;2022-10-30T22:06:51;43.80;;;22.40;;
59830;SDS011;45711;50.108;13.712;2022-10-30T22:09:38;46.67;;;22.67;;
59830;SDS011;45711;50.108;13.712;2022-10-30T22:13:08;44.13;;;21.55;;
59830;SDS011;45711;50.108;13.712;2022-10-30T22:16:22;38.40;;;20.58;;
59830;SDS011;45711;50.108;13.712;2022-10-30T22:18:52;45.80;;;21.08;;
59830;SDS011;45711;50.108;13.712;2022-10-30T22:22:03;41.42;;;21.33;;
59830;SDS011;45711;50.108;13.712;2022-10-30T22:24:37;45.15;;;21.65;;
59830;SDS011;45711;50.108;13.712;2022-10-30T22:27:08;45.28;;;21.48;;
59830;SDS011;45711;50.108;13.712;2022-10-30T22:29:39;41.38;;;22.30;;
59830;SDS011;45711;50.108;13.712;2022-10-30T22:39:19;40.33;;;19.33;;
59830;SDS011;45711;50.108;13.712;2022-10-30T22:41:56;39.97;;;20.08;;
59830;SDS011;45711;50.108;13.712;2022-10-30T22:44:27;42.67;;;22.67;;
59830;SDS011;45711;50.108;13.712;2022-10-30T22:46:59;43.70;;;20.38;;
59830;SDS011;45711;50.108;13.712;2022-10-30T22:49:34;38.63;;;20.63;;
59830;SDS011;45711;50.108;13.712;2022-10-30T22:53:41;42.05;;;19.80;;
59830;SDS011;45711;50.108;13.712;2022-10-30T22:57:54;33.95;;;18.90;;
59830;SDS011;45711;50.108;13.712;2022-10-30T23:00:24;40.58;;;19.52;;
59830;SDS011;45711;50.108;13.712;2022-10-30T23:03:05;33.45;;;18.77;;
59830;SDS011;45711;50.108;13.712;2022-10-30T23:05:42;39.35;;;18.90;;
59830;SDS011;45711;50.108;13.712;2022-10-30T23:08:22;36.13;;;19.20;;
59830;SDS011;45711;50.108;13.712;2022-10-30T23:10:58;38.30;;;20.05;;
59830;SDS011;45711;50.108;13.712;2022-10-30T23:13:24;44.55;;;20.85;;
59830;SDS011;45711;50.108;13.712;2022-10-30T23:15:52;41.40;;;20.27;;
59830;SDS011;45711;50.108;13.712;2022-10-30T23:18:24;45.72;;;21.20;;
59830;SDS011;45711;50.108;13.712;2022-10-30T23:20:57;39.60;;;20.75;;
59830;SDS011;45711;50.108;13.712;2022-10-30T23:23:26;37.10;;;20.67;;
59830;SDS011;45711;50.108;13.712;2022-10-30T23:25:52;40.83;;;21.25;;
59830;SDS011;45711;50.108;13.712;2022-10-30T23:28:21;45.45;;;20.40;;
59830;SDS011;45711;50.108;13.712;2022-10-30T23:31:01;40.38;;;20.63;;
59830;SDS011;45711;50.108;13.712;2022-10-30T23:33:27;42.38;;;20.42;;
59830;SDS011;45711;50.108;13.712;2022-10-30T23:35:59;46.72;;;22.10;;
59830;SDS011;45711;50.108;13.712;2022-10-30T23:38:27;44.50;;;20.80;;
59830;SDS011;45711;50.108;13.712;2022-10-30T23:41:01;39.65;;;20.38;;
59830;SDS011;45711;50.108;13.712;2022-10-30T23:43:31;37.75;;;20.23;;
59830;SDS011;45711;50.108;13.712;2022-10-30T23:45:59;47.40;;;22.10;;
59830;SDS011;45711;50.108;13.712;2022-10-30T23:48:25;41.72;;;21.92;;
59830;SDS011;45711;50.108;13.712;2022-10-30T23:50:50;45.45;;;21.00;;
59830;SDS011;45711;50.108;13.712;2022-10-30T23:53:16;51.70;;;22.40;;
59830;SDS011;45711;50.108;13.712;2022-10-30T23:55:48;61.53;;;23.00;;
59830;SDS011;45711;50.108;13.712;2022-10-30T23:58:16;59.03;;;23.52;;
